Time;durP1;ratioP1;P1;durP2;ratioP2;P2;SDS_P1;SDS_P2;PMS_P1;PMS_P2;Temp;Humidity;BMP_temperature;BMP_pressure;BME280_temperature;BME280_humidity;BME280_pressure;Samples;Min_cycle;Max_cycle;Signal;HPM_P1;HPM_P2
2023/12/31 00:01:52;;;;;;;15.80;2.97;;;7.90;99.90;;;;;;5065060;28;20036;-48
2023/12/31 00:04:17;;;;;;;8.68;2.30;;;7.90;99.90;;;;;;5065077;28;20060;-45
2023/12/31 00:06:43;;;;;;;12.52;2.03;;;7.90;99.90;;;;;;5064038;28;20040;-46
2023/12/31 00:09:09;;;;;;;12.20;2.65;;;7.90;99.90;;;;;;5063643;28;20041;-45
2023/12/31 00:11:34;;;;;;;8.48;2.08;;;7.80;99.90;;;;;;5064893;28;20075;-45
2023/12/31 00:14:00;;;;;;;13.48;1.98;;;7.80;99.90;;;;;;5064937;28;20297;-46
2023/12/31 00:16:26;;;;;;;13.93;2.28;;;7.80;99.90;;;;;;5065054;28;20021;-45
2023/12/31 00:18:52;;;;;;;10.30;1.83;;;7.90;99.90;;;;;;5065271;28;20287;-46
2023/12/31 00:21:17;;;;;;;6.35;1.50;;;7.80;99.90;;;;;;5066792;28;20087;-45
2023/12/31 00:23:43;;;;;;;11.50;2.25;;;7.80;99.90;;;;;;5068236;28;20158;-45
2023/12/31 00:26:09;;;;;;;15.60;2.45;;;7.80;99.90;;;;;;5068095;28;20059;-46
2023/12/31 00:28:35;;;;;;;11.32;1.67;;;7.70;99.90;;;;;;5067580;28;20033;-45
2023/12/31 00:31:00;;;;;;;4.25;1.20;;;7.70;99.90;;;;;;5067137;28;20174;-47
2023/12/31 00:33:26;;;;;;;8.82;1.75;;;7.70;99.90;;;;;;5068465;28;20029;-46
2023/12/31 00:35:52;;;;;;;9.63;1.98;;;7.70;99.90;;;;;;5068380;28;20055;-46
2023/12/31 00:38:17;;;;;;;15.18;4.03;;;7.70;99.90;;;;;;5050991;28;20017;-45
2023/12/31 00:40:43;;;;;;;5.45;1.20;;;7.70;99.90;;;;;;5067995;28;20033;-45
2023/12/31 00:43:09;;;;;;;4.28;1.35;;;7.60;99.90;;;;;;5068293;28;20294;-46
2023/12/31 00:45:34;;;;;;;10.23;2.40;;;7.60;99.90;;;;;;5068308;28;20087;-45
2023/12/31 00:48:00;;;;;;;8.90;1.73;;;7.60;99.90;;;;;;5068183;28;20033;-46
2023/12/31 00:50:26;;;;;;;9.70;1.60;;;7.60;99.90;;;;;;5068309;28;20033;-46
2023/12/31 00:52:51;;;;;;;6.68;1.90;;;7.60;99.90;;;;;;5068303;28;20016;-46
2023/12/31 00:55:17;;;;;;;14.02;2.08;;;7.60;99.90;;;;;;5068152;28;20029;-45
2023/12/31 00:57:43;;;;;;;6.38;1.35;;;7.60;99.90;;;;;;5067916;28;20083;-45
2023/12/31 01:00:09;;;;;;;7.10;1.85;;;7.60;99.90;;;;;;5068148;28;20040;-45
2023/12/31 01:02:35;;;;;;;10.82;2.47;;;7.60;99.90;;;;;;5068024;28;20041;-46
2023/12/31 01:05:00;;;;;;;7.22;1.65;;;7.70;99.90;;;;;;5067674;28;20143;-46
2023/12/31 01:07:26;;;;;;;8.57;1.95;;;7.60;99.90;;;;;;5067809;28;20029;-46
2023/12/31 01:09:52;;;;;;;18.15;3.13;;;7.60;99.90;;;;;;5067612;28;20223;-45
2023/12/31 01:12:17;;;;;;;17.88;2.85;;;7.60;99.90;;;;;;5067511;28;20021;-47
2023/12/31 01:14:44;;;;;;;16.63;2.67;;;7.60;99.90;;;;;;5066945;28;20024;-49
2023/12/31 01:17:10;;;;;;;12.18;1.83;;;7.60;99.90;;;;;;5067763;28;20094;-48
2023/12/31 01:19:35;;;;;;;13.25;2.05;;;7.80;99.90;;;;;;5067801;28;20271;-48
2023/12/31 01:22:01;;;;;;;18.02;2.45;;;7.90;99.90;;;;;;5067824;28;20214;-46
2023/12/31 01:24:27;;;;;;;11.93;2.42;;;7.90;99.90;;;;;;5066669;28;20130;-48
2023/12/31 01:26:53;;;;;;;15.95;2.67;;;7.90;99.90;;;;;;5067712;28;20044;-46
2023/12/31 01:29:18;;;;;;;9.48;2.35;;;8.00;99.90;;;;;;5067254;28;20329;-47
2023/12/31 01:31:44;;;;;;;7.72;1.77;;;8.00;99.90;;;;;;5066532;28;20041;-47
2023/12/31 01:34:10;;;;;;;13.23;2.20;;;8.00;99.90;;;;;;5067574;28;20020;-47
2023/12/31 01:36:35;;;;;;;13.30;2.08;;;8.00;99.90;;;;;;5066502;28;20033;-46
2023/12/31 01:39:01;;;;;;;11.63;2.20;;;8.00;99.90;;;;;;5067112;28;20086;-46
2023/12/31 01:41:27;;;;;;;10.90;1.90;;;8.00;99.90;;;;;;5067131;28;20037;-46
2023/12/31 01:44:03;;;;;;;13.05;2.90;;;8.00;99.90;;;;;;5067498;28;20075;-46
2023/12/31 01:46:30;;;;;;;13.63;2.58;;;8.00;99.90;;;;;;5067493;28;20028;-47
2023/12/31 01:48:56;;;;;;;10.45;2.03;;;8.00;99.90;;;;;;5066297;28;20029;-48
2023/12/31 01:51:23;;;;;;;9.82;1.50;;;8.00;99.90;;;;;;5065951;28;20107;-47
2023/12/31 01:53:49;;;;;;;5.97;1.52;;;8.00;99.90;;;;;;5066096;28;20025;-48
2023/12/31 01:56:14;;;;;;;13.35;2.67;;;8.00;99.90;;;;;;5066088;28;20028;-49
2023/12/31 01:58:40;;;;;;;6.38;1.63;;;8.00;99.90;;;;;;5066021;28;20036;-48
2023/12/31 02:01:06;;;;;;;13.82;2.88;;;8.00;99.90;;;;;;5065844;28;20051;-46
2023/12/31 02:03:31;;;;;;;3.85;1.40;;;8.00;99.90;;;;;;5066218;28;20052;-48
2023/12/31 02:05:57;;;;;;;13.60;2.17;;;8.00;99.90;;;;;;5065890;28;20044;-48
2023/12/31 02:08:23;;;;;;;13.13;2.15;;;8.00;99.90;;;;;;5049132;28;20057;-46
2023/12/31 02:10:50;;;;;;;11.63;2.20;;;8.00;99.90;;;;;;5066860;28;20043;-49
2023/12/31 02:13:16;;;;;;;10.68;2.10;;;8.00;99.90;;;;;;5065803;28;20039;-49
2023/12/31 02:15:42;;;;;;;7.25;1.85;;;8.00;99.90;;;;;;5066575;28;20024;-45
2023/12/31 02:18:08;;;;;;;6.85;1.42;;;8.10;99.90;;;;;;5066569;28;20024;-48
2023/12/31 02:20:33;;;;;;;14.38;1.90;;;8.20;99.90;;;;;;5066160;28;20037;-50
2023/12/31 02:22:59;;;;;;;11.55;2.78;;;8.20;99.90;;;;;;5066665;28;20021;-47
2023/12/31 02:25:26;;;;;;;7.60;1.42;;;8.10;99.90;;;;;;5048827;28;20203;-49
2023/12/31 02:27:52;;;;;;;12.32;2.20;;;8.10;99.90;;;;;;5065679;28;20033;-46
2023/12/31 02:30:19;;;;;;;11.20;1.73;;;8.00;99.90;;;;;;5066410;28;20043;-49
2023/12/31 02:32:44;;;;;;;11.88;2.17;;;8.00;99.90;;;;;;5066319;28;20088;-49
2023/12/31 02:35:10;;;;;;;9.70;1.50;;;7.90;99.90;;;;;;5066430;28;20044;-49
2023/12/31 02:37:36;;;;;;;11.82;2.30;;;7.90;99.90;;;;;;5066203;28;20037;-49
2023/12/31 02:40:01;;;;;;;9.98;1.38;;;7.80;99.90;;;;;;5065178;28;20020;-48
2023/12/31 02:42:27;;;;;;;3.53;1.30;;;7.80;99.90;;;;;;5065240;28;20035;-46
2023/12/31 02:44:53;;;;;;;9.63;1.70;;;7.80;99.90;;;;;;5065151;28;20143;-46
2023/12/31 02:47:18;;;;;;;11.43;1.85;;;7.80;99.90;;;;;;5066196;28;20040;-47
2023/12/31 02:49:44;;;;;;;7.80;1.42;;;7.80;99.90;;;;;;5065948;28;20294;-46
2023/12/31 02:52:11;;;;;;;9.70;1.65;;;7.80;99.90;;;;;;5064891;28;20100;-46
2023/12/31 02:54:37;;;;;;;12.77;2.15;;;7.80;99.90;;;;;;5065976;28;20028;-47
2023/12/31 02:57:07;;;;;;;9.55;1.77;;;7.80;99.90;;;;;;5065578;28;20229;-46
2023/12/31 02:59:35;;;;;;;7.35;1.83;;;7.80;99.90;;;;;;5065716;28;20055;-46
2023/12/31 03:02:01;;;;;;;8.52;1.70;;;7.70;99.90;;;;;;5065732;28;20029;-46
2023/12/31 03:04:27;;;;;;;4.72;1.38;;;7.70;99.90;;;;;;5065538;28;20048;-46
2023/12/31 03:06:52;;;;;;;16.77;2.05;;;7.70;99.90;;;;;;5064802;28;20067;-47
2023/12/31 03:09:20;;;;;;;14.48;2.13;;;7.70;99.90;;;;;;5065546;28;20310;-45
2023/12/31 03:11:46;;;;;;;12.75;2.08;;;7.70;99.90;;;;;;5065673;28;20195;-47
2023/12/31 03:14:13;;;;;;;10.82;1.80;;;7.70;99.90;;;;;;5065726;28;20159;-45
2023/12/31 03:16:45;;;;;;;13.07;2.22;;;7.70;99.90;;;;;;5065724;28;20021;-49
2023/12/31 03:19:12;;;;;;;14.48;2.13;;;7.80;99.90;;;;;;5065552;28;20032;-49
2023/12/31 03:21:38;;;;;;;10.75;2.05;;;7.80;99.90;;;;;;5065391;28;20097;-48
2023/12/31 03:24:04;;;;;;;13.10;1.67;;;7.70;99.90;;;;;;5065472;28;20033;-48
2023/12/31 03:26:29;;;;;;;9.50;1.73;;;7.80;99.90;;;;;;5065543;28;20029;-47
2023/12/31 03:28:55;;;;;;;14.07;2.00;;;7.70;99.90;;;;;;5065528;28;20052;-46
2023/12/31 03:31:20;;;;;;;10.38;2.33;;;7.70;99.90;;;;;;5047693;28;20086;-48
2023/12/31 03:33:46;;;;;;;12.18;1.67;;;7.70;99.90;;;;;;5065223;28;20096;-47
2023/12/31 03:36:12;;;;;;;11.18;1.73;;;7.70;99.90;;;;;;5064908;28;20111;-47
2023/12/31 03:38:37;;;;;;;9.38;1.63;;;7.70;99.90;;;;;;5065370;28;20025;-49
2023/12/31 03:41:04;;;;;;;9.35;1.88;;;7.70;99.90;;;;;;5064887;28;20041;-49
2023/12/31 03:43:30;;;;;;;10.50;2.58;;;7.70;99.90;;;;;;5065159;28;20305;-49
2023/12/31 03:45:57;;;;;;;11.75;1.80;;;7.60;99.90;;;;;;5065237;28;20084;-47
2023/12/31 03:48:23;;;;;;;5.00;2.28;;;7.60;99.90;;;;;;5064176;28;20048;-48
2023/12/31 03:50:49;;;;;;;11.75;2.45;;;7.60;99.90;;;;;;5065463;28;20071;-48
2023/12/31 03:53:14;;;;;;;13.50;2.28;;;7.60;99.90;;;;;;5064944;28;20091;-48
2023/12/31 03:55:41;;;;;;;12.43;2.17;;;7.60;99.90;;;;;;5066925;28;20037;-46
2023/12/31 03:58:06;;;;;;;13.63;2.20;;;7.50;99.90;;;;;;5069287;28;20320;-46
2023/12/31 04:00:32;;;;;;;13.57;2.30;;;7.50;99.90;;;;;;5069559;28;20064;-46
2023/12/31 04:02:58;;;;;;;15.48;2.45;;;7.60;99.90;;;;;;5068919;28;20057;-46
2023/12/31 04:05:24;;;;;;;11.95;2.55;;;7.50;99.90;;;;;;5068916;28;20025;-46
2023/12/31 04:07:50;;;;;;;18.30;2.28;;;7.50;99.90;;;;;;5069004;28;20164;-46
2023/12/31 04:10:16;;;;;;;10.32;2.22;;;7.60;99.90;;;;;;5068102;28;20036;-49
2023/12/31 04:12:41;;;;;;;15.05;1.98;;;7.70;99.90;;;;;;5069114;28;20084;-47
2023/12/31 04:15:08;;;;;;;9.30;1.88;;;7.70;99.90;;;;;;5068826;28;20025;-47
2023/12/31 04:17:34;;;;;;;12.13;2.70;;;7.80;99.90;;;;;;5069110;28;20033;-49
2023/12/31 04:20:00;;;;;;;11.02;1.92;;;7.90;99.90;;;;;;5068778;28;20256;-49
2023/12/31 04:22:26;;;;;;;18.58;2.72;;;7.90;99.90;;;;;;5069712;28;20029;-49
2023/12/31 04:24:51;;;;;;;10.57;2.55;;;8.00;99.90;;;;;;5068839;28;20025;-50
2023/12/31 04:27:18;;;;;;;17.83;2.63;;;8.00;99.90;;;;;;5068783;28;20060;-47
2023/12/31 04:29:44;;;;;;;11.57;1.90;;;8.00;99.90;;;;;;5068660;28;20318;-49
2023/12/31 04:32:10;;;;;;;10.52;2.35;;;8.00;99.90;;;;;;5068726;28;20052;-48
2023/12/31 04:34:35;;;;;;;12.25;2.08;;;8.00;99.90;;;;;;5069108;28;20021;-48
2023/12/31 04:37:01;;;;;;;13.35;2.40;;;8.00;99.90;;;;;;5068508;28;20060;-48
2023/12/31 04:39:27;;;;;;;14.98;2.13;;;8.00;99.90;;;;;;5068421;28;20024;-49
2023/12/31 04:41:54;;;;;;;11.55;2.20;;;8.00;99.90;;;;;;5067512;28;20198;-49
2023/12/31 04:44:19;;;;;;;13.63;1.70;;;8.00;99.90;;;;;;5068518;28;20031;-49
2023/12/31 04:46:45;;;;;;;17.10;2.67;;;8.00;99.90;;;;;;5068733;28;20186;-47
2023/12/31 04:49:14;;;;;;;15.02;2.28;;;7.90;99.90;;;;;;5068485;28;20032;-47
2023/12/31 04:51:40;;;;;;;15.73;3.03;;;7.90;99.90;;;;;;5068510;28;20029;-46
2023/12/31 04:54:06;;;;;;;10.82;1.90;;;7.90;99.90;;;;;;5068223;28;20035;-47
2023/12/31 04:56:31;;;;;;;15.48;2.22;;;7.90;99.90;;;;;;5050823;28;20021;-49
2023/12/31 04:58:58;;;;;;;15.35;2.13;;;7.90;99.90;;;;;;5067869;28;20163;-48
2023/12/31 05:01:26;;;;;;;10.93;2.10;;;7.90;99.90;;;;;;5068297;28;20028;-49
2023/12/31 05:03:51;;;;;;;12.85;2.08;;;7.80;99.90;;;;;;5068179;28;20020;-46
2023/12/31 05:06:17;;;;;;;12.48;2.17;;;7.80;99.90;;;;;;5067473;28;20209;-47
2023/12/31 05:08:43;;;;;;;12.82;2.47;;;7.80;99.90;;;;;;5067476;28;20048;-45
2023/12/31 05:11:10;;;;;;;5.97;1.25;;;7.80;99.90;;;;;;5068232;28;20051;-46
2023/12/31 05:13:36;;;;;;;11.23;1.48;;;7.80;99.90;;;;;;5066956;28;20152;-45
2023/12/31 05:16:02;;;;;;;11.45;1.95;;;7.80;99.90;;;;;;5066820;28;20033;-46
2023/12/31 05:18:28;;;;;;;11.32;1.90;;;7.70;99.90;;;;;;5068437;28;20088;-46
2023/12/31 05:20:54;;;;;;;12.07;1.90;;;7.70;99.90;;;;;;5068095;28;20099;-47
2023/12/31 05:23:19;;;;;;;13.18;2.78;;;7.70;99.90;;;;;;5067859;28;20036;-46
2023/12/31 05:25:45;;;;;;;17.08;2.40;;;7.70;99.90;;;;;;5067665;28;20051;-46
2023/12/31 05:28:11;;;;;;;19.13;2.50;;;7.70;99.90;;;;;;5067640;28;20055;-49
2023/12/31 05:30:41;;;;;;;13.15;1.98;;;7.70;99.90;;;;;;5067750;28;20040;-48
2023/12/31 05:33:07;;;;;;;8.60;1.98;;;7.70;99.90;;;;;;5067320;28;20322;-49
2023/12/31 05:35:32;;;;;;;9.40;1.65;;;7.70;99.90;;;;;;5067472;28;20029;-49
2023/12/31 05:37:58;;;;;;;11.48;1.70;;;7.70;99.90;;;;;;5066547;28;20079;-51
2023/12/31 05:40:24;;;;;;;12.63;2.22;;;7.70;99.90;;;;;;5067655;28;20031;-48
2023/12/31 05:42:49;;;;;;;10.93;1.67;;;7.80;99.90;;;;;;5067463;28;20056;-46
2023/12/31 05:45:16;;;;;;;13.70;1.90;;;7.80;99.90;;;;;;5067042;28;20040;-46
2023/12/31 05:47:42;;;;;;;9.60;2.22;;;7.80;99.90;;;;;;5067082;28;20036;-48
2023/12/31 05:50:08;;;;;;;11.05;2.05;;;7.90;99.90;;;;;;5067280;28;20163;-49
2023/12/31 05:52:33;;;;;;;15.30;2.50;;;7.90;99.90;;;;;;5067751;28;20067;-49
2023/12/31 05:54:59;;;;;;;12.18;2.30;;;7.90;99.90;;;;;;5067739;28;20017;-49
2023/12/31 05:57:25;;;;;;;13.10;2.38;;;7.90;99.90;;;;;;5067060;28;20021;-49
2023/12/31 05:59:51;;;;;;;13.80;2.20;;;7.90;99.90;;;;;;5066738;28;20062;-49
2023/12/31 06:02:17;;;;;;;14.10;2.13;;;7.90;99.90;;;;;;5065895;28;20025;-49
2023/12/31 06:04:42;;;;;;;13.10;2.33;;;7.90;99.90;;;;;;5067070;28;20163;-49
2023/12/31 06:07:08;;;;;;;12.15;2.47;;;7.90;99.90;;;;;;5066991;28;20152;-48
2023/12/31 06:09:34;;;;;;;10.80;1.85;;;7.80;99.90;;;;;;5066587;28;20060;-47
2023/12/31 06:11:59;;;;;;;12.07;2.13;;;7.90;99.90;;;;;;5066655;28;20067;-49
2023/12/31 06:14:25;;;;;;;12.32;1.55;;;7.90;99.90;;;;;;5067285;28;20028;-49
2023/12/31 06:16:51;;;;;;;13.88;1.63;;;7.90;99.90;;;;;;5066963;28;20052;-49
2023/12/31 06:19:16;;;;;;;10.68;1.80;;;7.90;99.90;;;;;;5066398;28;20051;-47
2023/12/31 06:21:42;;;;;;;12.43;3.22;;;7.80;99.90;;;;;;5065889;28;20036;-47
2023/12/31 06:24:07;;;;;;;14.52;1.63;;;7.90;99.90;;;;;;5065621;28;20029;-47
2023/12/31 06:26:33;;;;;;;18.63;2.45;;;7.90;99.90;;;;;;5066829;28;20099;-46
2023/12/31 06:28:59;;;;;;;16.73;2.25;;;7.90;99.90;;;;;;5066771;28;20053;-47
2023/12/31 06:31:25;;;;;;;21.15;2.22;;;7.80;99.90;;;;;;5066205;28;20028;-47
2023/12/31 06:33:51;;;;;;;10.73;1.80;;;7.80;99.90;;;;;;5066418;28;20044;-46
2023/12/31 06:36:17;;;;;;;15.57;2.17;;;7.80;99.90;;;;;;5065897;28;20119;-47
2023/12/31 06:38:43;;;;;;;18.33;2.75;;;7.80;99.90;;;;;;5066493;28;20021;-46
2023/12/31 06:41:09;;;;;;;19.70;2.70;;;7.80;99.90;;;;;;5066351;28;20025;-47
2023/12/31 06:43:35;;;;;;;14.35;2.15;;;7.70;99.90;;;;;;5066108;28;20056;-47
2023/12/31 06:46:02;;;;;;;11.75;1.67;;;7.80;99.90;;;;;;5065137;28;20025;-48
2023/12/31 06:48:27;;;;;;;14.60;2.08;;;7.80;99.90;;;;;;5065396;28;20021;-46
2023/12/31 06:50:53;;;;;;;14.20;2.42;;;7.80;99.90;;;;;;5065480;28;20048;-46
2023/12/31 06:53:19;;;;;;;12.52;1.67;;;7.80;99.90;;;;;;5065754;28;20093;-46
2023/12/31 06:55:45;;;;;;;17.60;3.08;;;7.80;99.90;;;;;;5066016;28;20203;-46
2023/12/31 06:58:12;;;;;;;19.88;3.03;;;7.80;99.90;;;;;;5065380;28;20029;-46
2023/12/31 07:00:37;;;;;;;20.83;4.22;;;7.80;99.90;;;;;;5065374;28;20037;-46
2023/12/31 07:03:03;;;;;;;20.45;3.20;;;7.70;99.90;;;;;;5064714;28;20028;-46
2023/12/31 07:05:29;;;;;;;20.27;4.78;;;7.70;99.90;;;;;;5066021;28;20037;-46
2023/12/31 07:07:55;;;;;;;17.35;4.28;;;7.60;99.90;;;;;;5065527;28;20069;-46
2023/12/31 07:10:21;;;;;;;22.83;4.32;;;7.50;99.90;;;;;;5065660;28;20092;-47
2023/12/31 07:12:47;;;;;;;19.90;4.10;;;7.50;99.90;;;;;;5065993;28;20025;-46
2023/12/31 07:15:13;;;;;;;8.43;2.45;;;7.50;99.90;;;;;;5064612;28;20052;-46
2023/12/31 07:17:38;;;;;;;11.05;2.15;;;7.60;99.90;;;;;;5065171;28;20084;-46
2023/12/31 07:20:05;;;;;;;13.93;3.20;;;7.60;99.90;;;;;;5066194;28;20029;-46
2023/12/31 07:22:31;;;;;;;13.30;2.60;;;7.60;99.90;;;;;;5065665;28;20182;-46
2023/12/31 07:24:58;;;;;;;18.88;2.97;;;7.60;99.90;;;;;;5065695;28;20016;-46
2023/12/31 07:27:24;;;;;;;10.55;1.95;;;7.60;99.90;;;;;;5065436;28;20095;-47
2023/12/31 07:29:49;;;;;;;14.02;2.10;;;7.60;99.90;;;;;;5064180;28;20289;-46
2023/12/31 07:32:15;;;;;;;19.13;3.70;;;7.60;99.90;;;;;;5065434;28;20199;-46
2023/12/31 07:34:41;;;;;;;10.85;2.10;;;7.50;99.90;;;;;;5065737;28;20020;-46
2023/12/31 07:37:06;;;;;;;15.75;2.83;;;7.50;99.90;;;;;;5048066;28;20301;-47
2023/12/31 07:39:32;;;;;;;13.95;2.40;;;7.50;99.90;;;;;;5064111;28;20025;-46
2023/12/31 07:41:58;;;;;;;17.65;2.08;;;7.50;99.90;;;;;;5064298;28;20135;-46
2023/12/31 07:44:24;;;;;;;11.43;2.40;;;7.50;99.90;;;;;;5064511;28;20083;-46
2023/12/31 07:46:50;;;;;;;14.85;2.08;;;7.50;99.90;;;;;;5064467;28;20047;-46
2023/12/31 07:49:15;;;;;;;17.90;2.55;;;7.50;99.90;;;;;;5065328;28;20044;-46
2023/12/31 07:51:41;;;;;;;16.10;2.75;;;7.50;99.90;;;;;;5065132;28;20041;-46
2023/12/31 07:54:07;;;;;;;11.75;1.92;;;7.50;99.90;;;;;;5064006;28;20025;-47
2023/12/31 07:56:32;;;;;;;13.15;1.83;;;7.50;99.90;;;;;;5065285;28;20025;-47
2023/12/31 07:58:58;;;;;;;11.98;1.90;;;7.60;99.90;;;;;;5065253;28;20202;-46
2023/12/31 08:01:24;;;;;;;7.50;1.75;;;7.60;99.90;;;;;;5065246;28;20035;-46
2023/12/31 08:03:50;;;;;;;13.98;2.25;;;7.70;99.90;;;;;;5064995;28;20033;-47
2023/12/31 08:06:16;;;;;;;13.05;1.83;;;7.60;99.90;;;;;;5064208;28;20102;-47
2023/12/31 08:08:42;;;;;;;7.68;1.63;;;7.60;99.90;;;;;;5063803;28;20250;-46
2023/12/31 08:11:07;;;;;;;12.02;1.77;;;7.60;99.90;;;;;;5064911;28;20094;-46
2023/12/31 08:13:34;;;;;;;5.68;1.35;;;7.60;99.90;;;;;;5063900;28;20127;-46
2023/12/31 08:16:00;;;;;;;12.18;1.92;;;7.60;99.90;;;;;;5064943;28;20020;-47
2023/12/31 08:18:26;;;;;;;10.35;1.35;;;7.60;99.90;;;;;;5064231;28;20025;-46
2023/12/31 08:20:52;;;;;;;13.80;1.50;;;7.60;99.90;;;;;;5064120;28;20063;-47
2023/12/31 08:23:19;;;;;;;9.45;2.00;;;7.60;99.90;;;;;;5065043;28;20033;-48
2023/12/31 08:25:44;;;;;;;10.30;1.45;;;7.60;99.90;;;;;;5064890;28;20033;-47
2023/12/31 08:28:10;;;;;;;11.82;1.70;;;7.60;99.90;;;;;;5064948;28;20100;-47
2023/12/31 08:30:36;;;;;;;10.75;2.15;;;7.60;99.90;;;;;;5064403;28;20040;-47
2023/12/31 08:33:01;;;;;;;13.00;2.63;;;7.60;99.90;;;;;;5064169;28;20039;-47
2023/12/31 08:35:27;;;;;;;11.68;2.38;;;7.60;99.90;;;;;;5063829;28;20298;-49
2023/12/31 08:37:53;;;;;;;12.02;1.70;;;7.60;99.90;;;;;;5063766;28;20104;-48
2023/12/31 08:40:21;;;;;;;9.95;1.73;;;7.60;99.90;;;;;;5064961;28;20029;-47
2023/12/31 08:42:47;;;;;;;12.18;1.48;;;7.70;99.90;;;;;;5067703;28;20210;-48
2023/12/31 08:45:12;;;;;;;10.48;1.60;;;7.80;99.90;;;;;;5067516;28;20025;-49
2023/12/31 08:47:39;;;;;;;16.65;2.13;;;7.70;99.90;;;;;;5068364;28;20044;-47
2023/12/31 08:50:08;;;;;;;11.68;1.85;;;7.70;99.90;;;;;;5068253;28;20193;-49
2023/12/31 08:52:35;;;;;;;8.40;1.35;;;7.80;99.90;;;;;;5067500;28;20024;-49
2023/12/31 08:55:01;;;;;;;9.35;1.63;;;7.80;99.90;;;;;;5068012;28;20056;-50
2023/12/31 08:57:27;;;;;;;8.43;1.40;;;7.80;99.90;;;;;;5068152;28;20113;-50
2023/12/31 08:59:53;;;;;;;15.48;2.42;;;7.70;99.90;;;;;;5067817;28;20013;-48
2023/12/31 09:02:19;;;;;;;10.07;1.63;;;7.80;99.90;;;;;;5068130;28;20037;-47
2023/12/31 09:04:45;;;;;;;10.98;2.08;;;7.80;99.90;;;;;;5067188;28;20242;-47
2023/12/31 09:07:11;;;;;;;19.00;2.30;;;7.90;99.90;;;;;;5067842;28;20024;-47
2023/12/31 09:09:36;;;;;;;15.77;2.80;;;7.90;99.90;;;;;;5067873;28;20052;-46
2023/12/31 09:12:02;;;;;;;14.05;2.20;;;8.00;99.90;;;;;;5068016;28;20048;-47
2023/12/31 09:14:29;;;;;;;18.70;3.17;;;8.00;99.90;;;;;;5068196;28;20036;-47
2023/12/31 09:16:55;;;;;;;17.35;2.13;;;8.00;99.90;;;;;;5067279;28;20036;-50
2023/12/31 09:19:20;;;;;;;17.40;2.42;;;8.00;99.90;;;;;;5066910;28;20271;-50
2023/12/31 09:21:46;;;;;;;10.40;1.90;;;8.10;99.90;;;;;;5067593;28;20032;-50
2023/12/31 09:24:11;;;;;;;7.53;1.73;;;8.10;99.90;;;;;;5067791;28;20266;-47
2023/12/31 09:26:37;;;;;;;17.10;2.47;;;8.20;99.90;;;;;;5067822;28;20045;-50
2023/12/31 09:29:03;;;;;;;10.55;2.00;;;8.30;99.90;;;;;;5066399;28;20096;-50
2023/12/31 09:31:29;;;;;;;10.35;1.50;;;8.30;99.90;;;;;;5066193;28;20048;-50
2023/12/31 09:33:54;;;;;;;14.45;2.13;;;8.30;99.90;;;;;;5067418;28;20033;-49
2023/12/31 09:36:20;;;;;;;11.15;1.90;;;8.30;99.90;;;;;;5066342;28;20021;-50
2023/12/31 09:38:46;;;;;;;12.60;1.85;;;8.40;99.90;;;;;;5067490;28;20021;-49
2023/12/31 09:41:15;;;;;;;10.90;1.48;;;8.40;99.90;;;;;;5066314;28;20028;-50
2023/12/31 09:43:41;;;;;;;6.90;1.38;;;8.50;99.90;;;;;;5050375;28;20255;-47
2023/12/31 09:46:06;;;;;;;8.10;1.77;;;8.50;99.90;;;;;;5049939;28;20051;-50
2023/12/31 09:48:32;;;;;;;8.45;1.67;;;8.50;99.90;;;;;;5066850;28;20045;-50
2023/12/31 09:50:58;;;;;;;13.90;1.60;;;8.50;99.90;;;;;;5066047;28;20025;-50
2023/12/31 09:53:24;;;;;;;7.85;1.60;;;8.50;99.90;;;;;;5065362;28;20032;-50
2023/12/31 09:55:50;;;;;;;11.35;2.15;;;8.50;99.90;;;;;;5067217;28;20086;-49
2023/12/31 09:58:16;;;;;;;15.75;2.58;;;8.50;99.90;;;;;;5066960;28;20021;-49
2023/12/31 10:00:42;;;;;;;12.25;1.65;;;8.60;99.90;;;;;;5066168;28;20043;-51
2023/12/31 10:03:08;;;;;;;8.55;1.55;;;8.60;99.90;;;;;;5065788;28;20056;-50
2023/12/31 10:05:34;;;;;;;7.03;1.83;;;8.60;99.90;;;;;;5066707;28;20021;-50
2023/12/31 10:08:03;;;;;;;12.88;2.30;;;8.60;99.90;;;;;;5065262;28;20092;-48
2023/12/31 10:10:29;;;;;;;6.70;1.17;;;8.70;99.90;;;;;;5066858;28;20028;-49
2023/12/31 10:12:54;;;;;;;9.57;1.98;;;8.80;99.90;;;;;;5067236;28;20041;-49
2023/12/31 10:15:21;;;;;;;11.07;1.75;;;8.80;99.90;;;;;;5066520;28;20025;-49
2023/12/31 10:17:46;;;;;;;7.53;1.60;;;8.80;99.90;;;;;;5066862;28;20276;-49
2023/12/31 10:20:12;;;;;;;10.15;2.03;;;8.80;99.90;;;;;;5065536;28;20134;-49
2023/12/31 10:22:38;;;;;;;8.88;1.85;;;8.80;99.90;;;;;;5065555;28;20067;-49
2023/12/31 10:25:16;;;;;;;7.95;1.50;;;8.80;99.90;;;;;;5065892;28;20037;-46
2023/12/31 10:27:48;;;;;;;6.70;2.03;;;8.80;99.90;;;;;;5066453;28;20229;-46
2023/12/31 10:30:14;;;;;;;9.65;1.58;;;8.80;99.90;;;;;;5065282;28;20025;-47
2023/12/31 10:32:40;;;;;;;10.95;1.48;;;8.80;99.90;;;;;;5066625;28;20047;-47
2023/12/31 10:35:06;;;;;;;11.65;2.35;;;8.80;99.90;;;;;;5066229;28;20041;-50
2023/12/31 10:37:32;;;;;;;10.15;1.60;;;8.90;99.90;;;;;;5065106;28;20194;-49
2023/12/31 10:39:58;;;;;;;11.52;2.00;;;8.90;99.90;;;;;;5066223;28;20024;-48
2023/12/31 10:42:24;;;;;;;12.38;2.00;;;8.90;99.90;;;;;;5048587;28;20021;-49
2023/12/31 10:44:53;;;;;;;12.52;1.98;;;8.90;99.90;;;;;;5066305;28;20064;-50
2023/12/31 10:47:18;;;;;;;16.60;2.13;;;8.90;99.90;;;;;;5066271;28;20174;-49
2023/12/31 10:49:46;;;;;;;8.63;1.67;;;8.90;99.90;;;;;;5066357;28;20033;-49
2023/12/31 10:52:15;;;;;;;8.75;1.63;;;8.90;99.90;;;;;;5065068;28;20250;-49
2023/12/31 10:54:53;;;;;;;8.70;2.57;;;8.90;99.90;;;;;;5066049;28;20025;-49
2023/12/31 10:57:21;;;;;;;9.00;1.85;;;9.00;99.90;;;;;;5065987;28;20091;-49
2023/12/31 10:59:50;;;;;;;12.00;1.73;;;9.00;99.90;;;;;;5064790;28;20045;-50
2023/12/31 11:02:17;;;;;;;6.00;1.40;;;9.10;99.90;;;;;;5065933;28;20028;-48
2023/12/31 11:04:46;;;;;;;10.55;2.08;;;9.10;99.90;;;;;;5064242;28;20041;-49
2023/12/31 11:07:22;;;;;;;9.05;1.60;;;9.20;99.90;;;;;;5048186;28;20025;-49
2023/12/31 11:09:48;;;;;;;10.63;1.98;;;9.20;99.90;;;;;;5065445;28;20290;-47
2023/12/31 11:12:15;;;;;;;9.68;2.10;;;9.30;99.90;;;;;;5065576;28;20035;-49
2023/12/31 11:14:46;;;;;;;10.25;1.60;;;9.30;99.90;;;;;;5065690;28;20025;-49
2023/12/31 11:17:34;;;;;;;8.25;1.67;;;9.30;99.90;;;;;;5064376;28;20033;-47
2023/12/31 11:20:27;;;;;;;6.43;1.83;;;9.20;99.90;;;;;;5064385;28;20024;-48
2023/12/31 11:23:23;;;;;;;9.25;1.60;;;9.20;99.90;;;;;;5064685;28;20104;-50
2023/12/31 11:25:49;;;;;;;8.77;1.80;;;9.20;99.90;;;;;;5065450;28;20354;-49
2023/12/31 11:28:17;;;;;;;12.60;3.80;;;9.20;99.90;;;;;;5064241;28;20037;-50
2023/12/31 11:30:52;;;;;;;16.08;7.43;;;9.10;99.90;;;;;;5065413;28;20298;-50
2023/12/31 11:33:25;;;;;;;66.50;39.20;;;9.20;99.90;;;;;;5065405;28;20052;-49
2023/12/31 11:35:52;;;;;;;8.95;2.92;;;9.10;99.90;;;;;;5064440;28;20025;-49
2023/12/31 11:38:19;;;;;;;17.08;6.78;;;9.10;99.90;;;;;;5064986;28;20036;-50
2023/12/31 11:40:44;;;;;;;15.93;5.75;;;9.10;99.90;;;;;;5065075;28;20044;-47
2023/12/31 11:43:17;;;;;;;15.50;4.88;;;9.10;99.90;;;;;;5065060;28;20036;-47
2023/12/31 11:45:44;;;;;;;11.40;2.65;;;9.10;99.90;;;;;;5065298;28;20096;-47
2023/12/31 11:48:30;;;;;;;6.07;2.15;;;9.10;99.90;;;;;;5064174;28;20345;-47
2023/12/31 11:51:01;;;;;;;7.47;2.00;;;9.10;99.90;;;;;;5065041;28;20128;-49
2023/12/31 11:53:47;;;;;;;10.43;2.30;;;9.10;99.90;;;;;;5064978;28;20101;-46
2023/12/31 11:56:13;;;;;;;10.93;2.55;;;9.10;99.90;;;;;;5064653;28;20075;-48
2023/12/31 11:58:41;;;;;;;38.38;18.17;;;9.10;99.90;;;;;;5065063;28;20029;-48
2023/12/31 12:01:06;;;;;;;34.58;15.18;;;9.20;99.90;;;;;;5030869;28;20036;-47
2023/12/31 12:03:32;;;;;;;93.63;40.45;;;9.10;99.90;;;;;;5064287;28;20025;-46
2023/12/31 12:05:59;;;;;;;15.02;6.60;;;9.10;99.90;;;;;;5064931;28;20084;-49
2023/12/31 12:08:26;;;;;;;8.45;3.10;;;9.10;99.90;;;;;;5063818;28;20068;-47
2023/12/31 12:10:52;;;;;;;10.00;2.67;;;9.00;99.90;;;;;;5063452;28;20032;-50
2023/12/31 12:13:17;;;;;;;9.68;3.42;;;9.00;99.90;;;;;;5065029;28;20096;-50
2023/12/31 12:15:43;;;;;;;9.45;2.70;;;9.00;99.90;;;;;;5064476;28;20056;-50
2023/12/31 12:18:19;;;;;;;5.72;1.95;;;9.10;99.90;;;;;;5069016;28;20138;-49
2023/12/31 12:20:46;;;;;;;9.35;3.53;;;9.00;99.90;;;;;;5068830;28;20047;-50
2023/12/31 12:23:13;;;;;;;8.80;2.17;;;9.10;99.90;;;;;;5067944;28;20032;-49
2023/12/31 12:25:38;;;;;;;8.55;2.33;;;9.10;99.90;;;;;;5068615;28;20033;-50
2023/12/31 12:28:08;;;;;;;5.70;1.65;;;9.10;99.90;;;;;;5068575;28;20045;-50
2023/12/31 12:30:33;;;;;;;11.20;2.17;;;9.20;99.90;;;;;;5068697;28;20114;-49
2023/12/31 12:33:02;;;;;;;5.88;1.70;;;9.20;99.90;;;;;;5068696;28;20032;-47
2023/12/31 12:35:28;;;;;;;11.73;2.38;;;9.20;99.90;;;;;;5067657;28;20048;-48
2023/12/31 12:37:54;;;;;;;4.53;1.38;;;9.20;99.90;;;;;;5068414;28;20025;-50
2023/12/31 12:40:20;;;;;;;7.28;1.55;;;9.10;99.90;;;;;;5067609;28;20138;-50
2023/12/31 12:42:48;;;;;;;7.28;1.45;;;9.10;99.90;;;;;;5068254;28;20033;-50
2023/12/31 12:45:15;;;;;;;21.75;10.90;;;9.10;99.90;;;;;;5068264;28;20024;-49
2023/12/31 12:47:42;;;;;;;9.90;2.45;;;9.20;99.90;;;;;;5068258;28;20039;-50